Time;durP1;ratioP1;P1;durP2;ratioP2;P2;SDS_P1;SDS_P2;PMS_P1;PMS_P2;Temp;Humidity;BMP_temperature;BMP_pressure;BME280_temperature;BME280_humidity;BME280_pressure;Samples;Min_cycle;Max_cycle;Signal;HPM_P1;HPM_P2
2022/11/21 00:01:52;;;;;;;31.25;21.38;;;0.50;99.90;;;;;;6247741;23;20195;-75
2022/11/21 00:04:29;;;;;;;28.95;19.75;;;0.50;99.90;;;;;;6247473;23;20264;-75
2022/11/21 00:07:17;;;;;;;29.85;21.33;;;0.50;99.90;;;;;;6246606;23;20185;-75
2022/11/21 00:13:03;;;;;;;29.65;20.67;;;0.40;99.90;;;;;;6245157;23;20199;-74
2022/11/21 00:15:54;;;;;;;29.27;20.38;;;0.50;99.90;;;;;;6247376;23;20164;-75
2022/11/21 00:18:29;;;;;;;28.63;21.23;;;0.40;99.90;;;;;;6243682;23;20176;-73
2022/11/21 00:24:07;;;;;;;30.35;21.23;;;0.50;99.90;;;;;;6244942;23;20195;-74
2022/11/21 00:26:59;;;;;;;29.02;20.98;;;0.50;99.90;;;;;;6246299;23;20179;-75
2022/11/21 00:29:54;;;;;;;26.73;20.00;;;0.50;99.90;;;;;;6246177;23;20257;-75
2022/11/21 00:32:43;;;;;;;33.00;21.63;;;0.50;99.90;;;;;;6243138;23;20259;-74
2022/11/21 00:35:36;;;;;;;27.27;19.85;;;0.40;99.90;;;;;;6245610;23;20286;-74
2022/11/21 00:38:10;;;;;;;28.42;20.30;;;0.50;99.90;;;;;;6246650;23;20182;-73
2022/11/21 00:40:55;;;;;;;30.42;22.90;;;0.50;99.90;;;;;;6246573;23;20237;-75
2022/11/21 00:43:43;;;;;;;32.15;22.33;;;0.50;99.90;;;;;;6245402;23;20254;-75
2022/11/21 00:46:16;;;;;;;31.27;22.35;;;0.50;99.90;;;;;;6243550;23;20191;-74
2022/11/21 00:48:53;;;;;;;32.38;22.40;;;0.40;99.90;;;;;;6247144;23;20182;-73
2022/11/21 00:51:22;;;;;;;29.25;20.73;;;0.40;99.90;;;;;;6246311;23;20183;-73
2022/11/21 00:53:52;;;;;;;28.95;21.58;;;0.50;99.90;;;;;;6246123;23;20203;-75
2022/11/21 00:56:24;;;;;;;28.13;19.80;;;0.40;99.90;;;;;;6246386;23;20227;-76
2022/11/21 00:58:52;;;;;;;28.60;21.58;;;0.50;99.90;;;;;;6244827;23;20214;-75
2022/11/21 01:04:52;;;;;;;28.88;19.60;;;0.60;99.90;;;;;;6244246;23;20194;-74
2022/11/21 01:07:26;;;;;;;27.65;19.33;;;0.60;99.90;;;;;;6245121;23;20183;-75
2022/11/21 01:10:08;;;;;;;24.60;19.60;;;0.60;99.90;;;;;;6246880;23;20159;-75
2022/11/21 01:12:54;;;;;;;30.17;20.20;;;0.70;99.90;;;;;;6244308;23;20205;-75
2022/11/21 01:15:26;;;;;;;34.42;22.48;;;0.60;99.90;;;;;;6242861;23;20581;-75
2022/11/21 01:21:05;;;;;;;34.13;22.05;;;0.50;99.90;;;;;;6244618;23;20178;-75
2022/11/21 01:23:42;;;;;;;33.17;22.05;;;0.30;99.90;;;;;;6244754;23;20260;-75
2022/11/21 01:26:26;;;;;;;29.23;21.73;;;0.30;99.90;;;;;;6246811;23;20159;-74
2022/11/21 01:28:56;;;;;;;29.75;20.77;;;0.20;99.90;;;;;;6245240;23;20199;-74
2022/11/21 01:31:32;;;;;;;29.77;20.90;;;0.20;99.90;;;;;;6246630;23;20247;-73
2022/11/21 01:34:21;;;;;;;27.17;21.30;;;0.30;99.90;;;;;;6246308;23;20550;-76
2022/11/21 01:36:49;;;;;;;27.05;20.25;;;0.30;99.90;;;;;;6246286;23;20510;-74
2022/11/21 01:39:22;;;;;;;31.33;22.60;;;0.30;99.90;;;;;;6247185;23;20533;-74
2022/11/21 01:42:01;;;;;;;27.70;19.58;;;0.40;99.90;;;;;;6246854;23;20179;-74
2022/11/21 01:44:48;;;;;;;29.83;21.77;;;0.40;99.90;;;;;;6245882;23;20191;-74
2022/11/21 01:47:30;;;;;;;32.70;21.42;;;0.40;99.90;;;;;;6245734;23;20191;-75
2022/11/21 01:50:03;;;;;;;29.20;21.08;;;0.40;99.90;;;;;;6241550;23;20175;-75
2022/11/21 01:52:36;;;;;;;27.23;20.40;;;0.30;99.90;;;;;;6246640;23;20222;-75
2022/11/21 01:55:26;;;;;;;26.88;19.63;;;0.30;99.90;;;;;;6246723;23;20171;-74
2022/11/21 01:58:01;;;;;;;31.33;22.63;;;0.30;99.90;;;;;;6246204;23;20225;-76
2022/11/21 02:00:37;;;;;;;34.20;22.08;;;0.30;99.90;;;;;;6245967;23;20184;-75
2022/11/21 02:03:16;;;;;;;31.58;22.00;;;0.30;99.90;;;;;;6245863;23;20195;-75
2022/11/21 02:05:49;;;;;;;29.65;21.85;;;0.30;99.90;;;;;;6244042;23;20179;-75
2022/11/21 02:08:22;;;;;;;28.13;20.00;;;0.50;99.90;;;;;;6246216;23;20189;-74
2022/11/21 02:11:04;;;;;;;26.77;18.92;;;0.60;99.90;;;;;;6246638;23;20171;-75
2022/11/21 02:13:35;;;;;;;27.15;19.05;;;0.70;99.90;;;;;;6248660;23;20200;-75
2022/11/21 02:18:57;;;;;;;31.58;18.85;;;0.70;99.90;;;;;;6247679;23;20241;-76
2022/11/21 02:21:41;;;;;;;30.42;20.25;;;0.70;99.90;;;;;;6245034;23;20200;-75
2022/11/21 02:24:28;;;;;;;32.85;20.27;;;0.50;99.90;;;;;;6247962;23;20193;-75
2022/11/21 02:27:01;;;;;;;30.52;20.90;;;0.60;99.90;;;;;;6247875;23;20176;-75
2022/11/21 02:29:33;;;;;;;26.90;19.17;;;0.60;99.90;;;;;;6247557;23;20550;-76
2022/11/21 02:32:05;;;;;;;25.83;19.08;;;0.60;99.90;;;;;;6247843;23;20175;-75
2022/11/21 02:34:37;;;;;;;28.13;19.27;;;0.60;99.90;;;;;;6248354;23;20234;-76
2022/11/21 02:37:08;;;;;;;31.58;20.77;;;0.60;99.90;;;;;;6248202;23;20513;-76
2022/11/21 02:39:49;;;;;;;28.73;19.38;;;0.50;99.90;;;;;;6248715;23;20221;-75
2022/11/21 02:42:27;;;;;;;27.52;19.27;;;0.50;99.90;;;;;;6248132;23;20558;-75
2022/11/21 02:45:11;;;;;;;25.42;20.23;;;0.60;99.90;;;;;;6248052;23;20597;-76
2022/11/21 02:47:40;;;;;;;32.30;21.45;;;0.60;99.90;;;;;;6248272;23;20197;-74
2022/11/21 02:50:17;;;;;;;31.45;21.02;;;0.60;99.90;;;;;;6248132;23;20172;-74
2022/11/21 02:52:48;;;;;;;25.25;18.85;;;0.50;99.90;;;;;;6248313;23;20522;-74
2022/11/21 02:55:22;;;;;;;27.40;19.10;;;0.40;99.90;;;;;;6247930;23;20533;-76
2022/11/21 02:57:55;;;;;;;33.03;23.40;;;0.40;99.90;;;;;;6247683;23;20236;-74
2022/11/21 03:00:30;;;;;;;33.28;20.90;;;0.30;99.90;;;;;;6247567;23;20183;-76
2022/11/21 03:03:00;;;;;;;24.23;18.60;;;0.20;99.90;;;;;;6247649;23;20202;-74
2022/11/21 03:05:36;;;;;;;25.90;20.00;;;0.30;99.90;;;;;;6247914;23;20242;-75
2022/11/21 03:08:14;;;;;;;27.90;19.98;;;0.50;99.90;;;;;;6247310;23;20180;-74
2022/11/21 03:10:42;;;;;;;26.90;19.73;;;0.60;99.90;;;;;;6248066;23;20255;-74
2022/11/21 03:13:15;;;;;;;29.17;19.67;;;0.70;99.90;;;;;;6247786;23;20244;-74
2022/11/21 03:15:44;;;;;;;29.75;20.33;;;0.60;99.90;;;;;;6248159;23;20159;-77
2022/11/21 03:18:16;;;;;;;25.85;20.85;;;0.50;99.90;;;;;;6247415;23;20535;-73
2022/11/21 03:20:44;;;;;;;26.42;19.70;;;0.50;99.90;;;;;;6246728;23;20181;-74
2022/11/21 03:23:21;;;;;;;24.90;18.13;;;0.50;99.90;;;;;;6247320;23;20215;-75
2022/11/21 03:25:54;;;;;;;30.23;20.48;;;0.50;99.90;;;;;;6244502;23;20630;-75
2022/11/21 03:28:23;;;;;;;29.00;19.75;;;0.50;99.90;;;;;;6247650;23;20180;-74
2022/11/21 03:30:54;;;;;;;30.20;20.15;;;0.50;99.90;;;;;;6247265;23;20185;-75
2022/11/21 03:33:23;;;;;;;29.85;19.85;;;0.50;99.90;;;;;;6247346;23;20198;-75
2022/11/21 03:35:54;;;;;;;29.98;19.10;;;0.50;99.90;;;;;;6247315;23;20511;-75
2022/11/21 03:38:27;;;;;;;24.98;19.30;;;0.50;99.90;;;;;;6247273;23;20176;-75
2022/11/21 03:40:55;;;;;;;30.15;19.67;;;0.50;99.90;;;;;;6247036;23;20175;-74
2022/11/21 03:43:33;;;;;;;26.20;18.58;;;0.70;99.90;;;;;;6246849;23;20199;-73
2022/11/21 03:46:04;;;;;;;28.70;20.85;;;0.70;99.90;;;;;;6247606;23;20164;-73
2022/11/21 03:48:32;;;;;;;30.20;20.17;;;0.60;99.90;;;;;;6247127;23;20183;-75
2022/11/21 03:51:04;;;;;;;29.13;19.23;;;0.60;99.90;;;;;;6247583;23;20250;-75
2022/11/21 03:53:37;;;;;;;26.67;18.63;;;0.50;99.90;;;;;;6247235;23;20278;-74
2022/11/21 03:56:05;;;;;;;29.38;21.95;;;0.50;99.90;;;;;;6246615;23;20246;-73
2022/11/21 03:58:38;;;;;;;29.23;21.70;;;0.40;99.90;;;;;;6247569;23;20159;-73
2022/11/21 04:01:07;;;;;;;28.55;20.02;;;0.40;99.90;;;;;;6246995;23;20188;-75
2022/11/21 04:03:36;;;;;;;31.15;21.27;;;0.30;99.90;;;;;;6246965;23;20200;-75
2022/11/21 04:06:08;;;;;;;36.33;23.15;;;0.20;99.90;;;;;;6246836;23;20221;-75
2022/11/21 04:08:36;;;;;;;32.42;21.10;;;0.10;99.90;;;;;;6246787;23;20557;-73
2022/11/21 04:11:04;;;;;;;30.80;22.65;;;0.00;99.90;;;;;;6246981;23;20180;-75
2022/11/21 04:13:42;;;;;;;31.52;22.73;;;0.00;99.90;;;;;;6247312;23;20191;-75
2022/11/21 04:16:11;;;;;;;33.03;22.52;;;-0.20;99.90;;;;;;6246293;23;20194;-74
2022/11/21 04:18:50;;;;;;;30.13;23.00;;;-0.20;99.90;;;;;;6246488;23;20205;-74
2022/11/21 04:21:23;;;;;;;31.05;23.08;;;-0.20;99.90;;;;;;6247148;23;20242;-75
2022/11/21 04:23:51;;;;;;;36.50;22.55;;;-0.20;99.90;;;;;;6246880;23;20206;-74
2022/11/21 04:26:21;;;;;;;33.97;23.10;;;-0.10;99.90;;;;;;6247301;23;20163;-74
2022/11/21 04:28:54;;;;;;;30.17;23.77;;;-0.20;99.90;;;;;;6246480;23;20242;-76
2022/11/21 04:31:28;;;;;;;30.90;21.38;;;-0.10;99.90;;;;;;6246488;23;20261;-74
2022/11/21 04:33:56;;;;;;;31.70;21.17;;;-0.20;99.90;;;;;;6246646;23;20194;-76
2022/11/21 04:36:43;;;;;;;33.10;22.88;;;-0.20;99.90;;;;;;6244027;23;20171;-74
2022/11/21 04:39:16;;;;;;;35.15;23.92;;;-0.10;99.90;;;;;;6247279;23;20210;-74
2022/11/21 04:41:49;;;;;;;35.42;22.90;;;-0.20;99.90;;;;;;6247015;23;20163;-74
2022/11/21 04:44:29;;;;;;;31.08;23.70;;;-0.30;99.90;;;;;;6246057;23;20194;-76
2022/11/21 04:47:00;;;;;;;38.50;25.98;;;-0.30;99.90;;;;;;6247127;23;20221;-76
2022/11/21 04:49:29;;;;;;;31.55;24.45;;;-0.30;99.90;;;;;;6247167;23;20164;-73
2022/11/21 04:51:59;;;;;;;33.67;23.17;;;-0.20;99.90;;;;;;6246835;23;20163;-75
2022/11/21 04:54:35;;;;;;;29.10;21.98;;;-0.20;99.90;;;;;;6246930;23;20203;-75
2022/11/21 04:57:04;;;;;;;30.63;22.42;;;-0.20;99.90;;;;;;6247323;23;20239;-76
2022/11/21 04:59:42;;;;;;;30.65;23.45;;;-0.20;99.90;;;;;;6246613;23;20187;-74
2022/11/21 05:02:12;;;;;;;35.55;23.85;;;-0.10;99.90;;;;;;6246281;23;20690;-73
2022/11/21 05:04:43;;;;;;;39.50;26.65;;;-0.20;99.90;;;;;;6246902;23;20242;-75
2022/11/21 05:07:12;;;;;;;35.95;24.83;;;-0.30;99.90;;;;;;6246133;23;20177;-75
2022/11/21 05:09:49;;;;;;;43.63;27.40;;;-0.40;99.90;;;;;;6245951;23;20181;-76
2022/11/21 05:15:04;;;;;;;55.63;28.90;;;-0.50;99.90;;;;;;6246574;23;20209;-75
2022/11/21 05:17:32;;;;;;;42.97;26.55;;;-0.50;99.90;;;;;;6246049;23;20183;-76
2022/11/21 05:20:03;;;;;;;63.17;32.92;;;-0.50;99.90;;;;;;6246083;23;20618;-75
2022/11/21 05:22:31;;;;;;;53.97;31.92;;;-0.60;99.90;;;;;;6245740;23;20256;-75
2022/11/21 05:25:01;;;;;;;47.33;28.63;;;-0.60;99.90;;;;;;6246926;23;20198;-74
2022/11/21 05:27:45;;;;;;;48.92;29.02;;;-0.70;99.90;;;;;;6246375;23;20626;-75
2022/11/21 05:30:16;;;;;;;56.05;36.03;;;-0.70;99.90;;;;;;6242901;23;20257;-76
2022/11/21 05:32:47;;;;;;;67.63;35.10;;;-0.80;99.90;;;;;;6245902;23;20252;-74
2022/11/21 05:35:16;;;;;;;96.57;35.42;;;-0.60;99.90;;;;;;6246753;23;20163;-75
2022/11/21 05:37:50;;;;;;;87.63;36.40;;;-0.60;99.90;;;;;;6245887;23;20171;-75
2022/11/21 05:40:21;;;;;;;61.75;34.28;;;-0.60;99.90;;;;;;6246130;23;20205;-76
2022/11/21 05:45:39;;;;;;;81.80;39.10;;;-0.60;99.90;;;;;;6245813;23;20170;-75
2022/11/21 05:48:24;;;;;;;57.90;34.08;;;-0.80;99.90;;;;;;6246023;23;20159;-74
2022/11/21 05:50:52;;;;;;;62.47;34.47;;;-0.80;99.90;;;;;;6242000;23;20182;-75
2022/11/21 05:53:21;;;;;;;65.97;33.33;;;-0.60;99.90;;;;;;6245736;23;20244;-75
2022/11/21 05:58:35;;;;;;;63.67;37.13;;;-0.50;99.90;;;;;;6244576;23;20182;-76
2022/11/21 06:01:08;;;;;;;64.13;37.92;;;-0.60;99.90;;;;;;6245098;23;20190;-75
2022/11/21 06:03:44;;;;;;;64.43;34.90;;;-0.70;99.90;;;;;;6245585;23;20270;-75
2022/11/21 06:06:24;;;;;;;70.07;36.60;;;-0.90;99.90;;;;;;6245433;23;20178;-74
2022/11/21 06:08:55;;;;;;;65.13;34.08;;;-1.00;99.90;;;;;;6242152;23;20503;-76
2022/11/21 06:11:24;;;;;;;40.13;29.15;;;-0.90;99.90;;;;;;6246353;23;20165;-74
2022/11/21 06:13:55;;;;;;;44.88;32.25;;;-0.90;99.90;;;;;;6246670;23;20264;-74
2022/11/21 06:16:25;;;;;;;44.28;30.52;;;-0.80;99.90;;;;;;6246301;23;20250;-74
2022/11/21 06:18:56;;;;;;;53.50;32.53;;;-0.80;99.90;;;;;;6245993;23;20199;-75
2022/11/21 06:21:29;;;;;;;53.40;33.83;;;-0.80;99.90;;;;;;6246238;23;20221;-75
2022/11/21 06:24:00;;;;;;;51.42;32.47;;;-0.90;99.90;;;;;;6244988;23;20199;-74
2022/11/21 06:26:34;;;;;;;57.55;34.95;;;-1.00;99.90;;;;;;6245716;23;20167;-77
2022/11/21 06:29:05;;;;;;;54.67;31.98;;;-0.90;99.90;;;;;;6245348;23;20496;-73
2022/11/21 06:31:41;;;;;;;53.10;33.88;;;-0.90;99.90;;;;;;6245730;23;20246;-77
2022/11/21 06:34:17;;;;;;;61.08;35.97;;;-0.90;99.90;;;;;;6245622;23;20191;-76
2022/11/21 06:36:46;;;;;;;57.03;34.38;;;-1.00;99.90;;;;;;6246128;23;20163;-74
2022/11/21 06:39:17;;;;;;;56.47;34.67;;;-1.00;99.90;;;;;;6244095;23;20250;-72
2022/11/21 06:41:54;;;;;;;58.05;33.55;;;-1.00;99.90;;;;;;6252985;22;20214;-83
2022/11/21 06:44:21;;;;;;;58.42;32.47;;;-1.10;99.90;;;;;;6262624;23;20242;-81
2022/11/21 06:46:50;;;;;;;67.30;35.80;;;-1.30;99.90;;;;;;6263330;22;20245;-86
2022/11/21 06:49:17;;;;;;;69.82;36.35;;;-1.30;99.90;;;;;;6262690;23;20179;-85
2022/11/21 06:51:44;;;;;;;64.72;36.90;;;-1.50;99.90;;;;;;6260687;22;20238;-85
2022/11/21 06:57:32;;;;;;;94.50;40.75;;;-1.60;99.90;;;;;;6243134;22;20177;-83
2022/11/21 06:59:59;;;;;;;71.80;39.78;;;-1.50;99.90;;;;;;6264113;23;20574;-83
2022/11/21 07:02:27;;;;;;;58.00;35.28;;;-1.50;99.90;;;;;;6266207;22;20249;-82
2022/11/21 07:04:57;;;;;;;79.68;42.80;;;-1.50;99.90;;;;;;6266160;23;20183;-82
2022/11/21 07:07:24;;;;;;;71.13;40.45;;;-1.50;99.90;;;;;;6270744;22;20190;-83
2022/11/21 07:09:51;;;;;;;64.80;39.22;;;-1.50;99.90;;;;;;6273802;22;20203;-82
2022/11/21 07:15:02;;;;;;;67.55;37.42;;;-1.40;99.90;;;;;;6275737;22;20158;-83
2022/11/21 07:17:30;;;;;;;88.22;39.92;;;-1.30;99.90;;;;;;6275821;22;20159;-84
2022/11/21 07:19:57;;;;;;;69.40;40.25;;;-1.30;99.90;;;;;;6275472;22;20157;-85
2022/11/21 07:22:24;;;;;;;62.67;33.00;;;-1.10;99.90;;;;;;6275061;22;20206;-82
2022/11/21 07:24:51;;;;;;;57.17;37.20;;;-0.80;99.90;;;;;;6270391;22;20202;-82
2022/11/21 07:27:18;;;;;;;65.15;37.50;;;-0.90;99.90;;;;;;6264756;23;20171;-82
2022/11/21 07:29:45;;;;;;;61.95;33.30;;;-0.80;99.90;;;;;;6264072;22;20190;-82
2022/11/21 07:32:12;;;;;;;57.03;34.08;;;-0.90;99.90;;;;;;6265380;22;20225;-82
2022/11/21 07:34:40;;;;;;;51.90;32.15;;;-1.00;99.90;;;;;;6262881;23;20259;-83
2022/11/21 07:37:07;;;;;;;49.88;30.48;;;-1.10;99.90;;;;;;6263943;22;20182;-84
2022/11/21 07:39:34;;;;;;;49.17;31.67;;;-1.10;99.90;;;;;;6264182;23;20179;-82
2022/11/21 07:42:01;;;;;;;45.03;29.60;;;-0.90;99.90;;;;;;6264586;22;20203;-83
2022/11/21 07:44:28;;;;;;;48.95;31.13;;;-1.10;99.90;;;;;;6264531;22;20237;-80
2022/11/21 07:46:55;;;;;;;50.30;28.90;;;-1.10;99.90;;;;;;6262495;23;20241;-81
2022/11/21 07:49:22;;;;;;;41.85;27.55;;;-1.10;99.90;;;;;;6262154;23;20179;-80
2022/11/21 07:51:51;;;;;;;37.47;26.48;;;-1.00;99.90;;;;;;6260700;22;20199;-79
2022/11/21 07:54:17;;;;;;;67.32;32.15;;;-1.10;99.90;;;;;;6260518;23;20243;-80
2022/11/21 07:56:44;;;;;;;48.17;29.63;;;-1.30;99.90;;;;;;6259248;23;20183;-81
2022/11/21 07:59:11;;;;;;;48.20;27.83;;;-1.40;99.90;;;;;;6260223;23;20211;-79
2022/11/21 08:01:38;;;;;;;41.88;28.90;;;-1.30;99.90;;;;;;6261876;22;20258;-82
2022/11/21 08:04:05;;;;;;;45.42;28.95;;;-1.40;99.90;;;;;;6266309;23;20195;-80
2022/11/21 08:06:32;;;;;;;66.05;32.00;;;-1.20;99.90;;;;;;6265328;23;20171;-82
2022/11/21 08:09:00;;;;;;;52.60;26.83;;;-1.10;99.90;;;;;;6260858;23;20179;-81
2022/11/21 08:11:27;;;;;;;66.65;31.15;;;-1.10;99.90;;;;;;6262248;22;20219;-83
2022/11/21 08:13:55;;;;;;;72.60;32.53;;;-1.00;99.90;;;;;;6262339;23;20226;-81
2022/11/21 08:16:26;;;;;;;84.57;32.85;;;-1.00;99.90;;;;;;6265542;22;20175;-84
2022/11/21 08:18:54;;;;;;;73.93;31.30;;;-0.80;99.90;;;;;;6264112;22;20198;-82
2022/11/21 08:21:21;;;;;;;57.72;30.80;;;-0.50;99.90;;;;;;6263885;22;20578;-83
2022/11/21 08:23:48;;;;;;;63.25;31.23;;;-0.10;99.90;;;;;;6264429;23;20201;-83
2022/11/21 08:26:17;;;;;;;48.70;28.40;;;0.30;99.90;;;;;;6265502;22;20179;-82
2022/11/21 08:28:44;;;;;;;48.45;25.10;;;0.70;99.90;;;;;;6264631;23;20613;-80
2022/11/21 08:31:11;;;;;;;35.33;21.45;;;1.50;99.90;;;;;;6268199;22;20917;-81
2022/11/21 08:33:38;;;;;;;35.72;21.52;;;2.50;99.90;;;;;;6265860;23;20225;-83
2022/11/21 08:36:06;;;;;;;27.63;21.05;;;3.20;99.90;;;;;;6263708;23;20648;-82
2022/11/21 08:38:33;;;;;;;35.08;20.85;;;3.30;99.90;;;;;;6262453;23;20186;-82
2022/11/21 08:43:47;;;;;;;48.88;21.65;;;4.30;99.90;;;;;;6260844;23;20215;-82
2022/11/21 08:46:15;;;;;;;34.53;21.38;;;5.30;99.90;;;;;;6261744;22;20181;-84
2022/11/21 08:48:42;;;;;;;38.60;17.83;;;5.30;99.90;;;;;;6265229;23;20243;-81
2022/11/21 08:51:09;;;;;;;35.53;21.75;;;5.40;99.90;;;;;;6268543;22;20285;-80
2022/11/21 08:53:36;;;;;;;29.83;19.50;;;5.10;99.90;;;;;;6258434;23;20183;-79
2022/11/21 08:56:03;;;;;;;29.98;20.33;;;5.10;99.90;;;;;;6263050;22;20173;-82
2022/11/21 08:58:30;;;;;;;33.90;23.00;;;4.70;99.90;;;;;;6263367;23;20180;-83
2022/11/21 09:00:59;;;;;;;31.30;21.67;;;4.20;99.90;;;;;;6264382;22;20186;-82
2022/11/21 09:03:26;;;;;;;27.35;20.02;;;3.90;99.90;;;;;;6267437;23;20214;-83
2022/11/21 09:05:52;;;;;;;25.02;19.73;;;3.60;99.90;;;;;;6268368;23;20186;-83
2022/11/21 09:08:19;;;;;;;27.58;19.40;;;3.80;99.90;;;;;;6272588;22;20178;-83
2022/11/21 09:10:46;;;;;;;23.23;18.73;;;4.30;99.90;;;;;;6274309;22;20190;-83
2022/11/21 09:13:13;;;;;;;27.08;19.90;;;4.90;99.90;;;;;;6274272;22;20184;-83
2022/11/21 09:18:26;;;;;;;27.00;17.88;;;6.00;99.90;;;;;;6274792;22;20162;-82
2022/11/21 09:20:53;;;;;;;24.83;18.33;;;7.00;99.90;;;;;;6273960;22;20189;-81
2022/11/21 09:23:20;;;;;;;28.92;19.67;;;7.50;99.90;;;;;;6274819;22;20189;-82
2022/11/21 09:25:47;;;;;;;27.25;19.35;;;7.10;96.90;;;;;;6274462;22;20163;-83
2022/11/21 09:28:15;;;;;;;28.25;20.05;;;7.30;97.70;;;;;;6274208;22;20154;-83
2022/11/21 09:30:43;;;;;;;27.30;20.27;;;7.30;98.50;;;;;;6274080;22;20183;-82
2022/11/21 09:33:12;;;;;;;26.20;17.40;;;7.00;99.40;;;;;;6273950;22;20159;-82
2022/11/21 09:35:40;;;;;;;25.00;18.83;;;7.60;98.50;;;;;;6274300;22;20179;-82
2022/11/21 09:38:07;;;;;;;24.90;17.33;;;7.90;96.40;;;;;;6273940;22;20167;-83
2022/11/21 09:40:35;;;;;;;26.35;19.25;;;8.50;96.60;;;;;;6273583;22;20269;-83
2022/11/21 09:43:26;;;;;;;25.55;18.90;;;8.20;95.90;;;;;;6273687;22;20152;-83
2022/11/21 09:45:59;;;;;;;25.98;18.85;;;8.10;95.30;;;;;;6273516;22;20207;-81
2022/11/21 09:48:30;;;;;;;25.33;17.52;;;7.60;97.10;;;;;;6273455;22;20159;-82
2022/11/21 09:51:04;;;;;;;24.48;17.65;;;8.10;95.60;;;;;;6273834;22;20206;-82
2022/11/21 09:53:33;;;;;;;28.48;19.85;;;8.00;94.90;;;;;;6273669;22;20157;-80
2022/11/21 09:56:05;;;;;;;23.35;19.00;;;8.10;94.80;;;;;;6262080;22;20175;-83
2022/11/21 09:58:37;;;;;;;21.02;16.33;;;8.60;95.90;;;;;;6260607;23;20163;-82
2022/11/21 10:01:05;;;;;;;22.20;17.45;;;9.00;94.90;;;;;;6264364;22;20202;-82
2022/11/21 10:03:35;;;;;;;21.15;18.30;;;9.00;94.60;;;;;;6265234;23;20201;-82
2022/11/21 10:06:12;;;;;;;22.67;18.17;;;9.60;93.60;;;;;;6267064;23;20193;-82
2022/11/21 10:08:48;;;;;;;23.13;17.52;;;9.60;92.80;;;;;;6266891;23;20167;-81
2022/11/21 10:11:24;;;;;;;22.17;17.63;;;9.80;92.50;;;;;;6266238;22;20208;-82
2022/11/21 10:14:05;;;;;;;20.52;17.60;;;10.40;91.40;;;;;;6264744;23;20180;-82
2022/11/21 10:16:43;;;;;;;18.80;16.05;;;10.50;91.60;;;;;;6263821;23;20216;-81
2022/11/21 10:19:43;;;;;;;24.95;18.42;;;10.50;91.30;;;;;;6264340;23;20173;-82
2022/11/21 10:22:34;;;;;;;26.05;19.83;;;9.60;92.20;;;;;;6263705;22;20199;-81
2022/11/21 10:25:11;;;;;;;24.98;17.70;;;7.90;94.30;;;;;;6263271;23;20583;-83
2022/11/21 10:27:43;;;;;;;24.42;17.00;;;6.90;97.70;;;;;;6262518;23;20205;-83
2022/11/21 10:30:16;;;;;;;31.25;21.00;;;6.90;99.90;;;;;;6260908;22;20192;-82
2022/11/21 10:32:46;;;;;;;27.23;21.42;;;6.30;99.90;;;;;;6262508;23;20170;-83
2022/11/21 10:35:15;;;;;;;29.05;19.80;;;5.90;99.90;;;;;;6265377;23;20176;-82
2022/11/21 10:37:48;;;;;;;25.13;18.90;;;5.80;99.90;;;;;;6265228;23;20204;-82
2022/11/21 10:40:34;;;;;;;28.13;19.98;;;5.70;99.90;;;;;;6269125;22;20160;-82
2022/11/21 10:45:15;;;;;;;23.63;17.92;;;4.80;99.90;;;;;;6267914;23;20168;-81
2022/11/21 10:45:52;;;;;;;23.55;20.88;;;5.20;99.90;;;;;;6273508;22;20167;-82
2022/11/21 10:48:19;;;;;;;31.83;18.30;;;5.20;99.90;;;;;;6273502;23;20148;-82
2022/11/21 10:51:12;;;;;;;27.30;20.25;;;5.10;99.90;;;;;;6273260;22;20194;-82
2022/11/21 10:56:26;;;;;;;29.98;20.63;;;4.70;99.90;;;;;;6271193;23;20182;-83
2022/11/21 10:58:56;;;;;;;29.55;20.80;;;4.60;99.90;;;;;;6269878;22;20182;-83
2022/11/21 11:01:25;;;;;;;27.60;19.35;;;4.50;99.90;;;;;;6265401;22;20258;-83
2022/11/21 11:04:07;;;;;;;24.98;18.83;;;4.60;99.90;;;;;;6262240;23;20200;-82
2022/11/21 11:06:34;;;;;;;23.95;19.13;;;4.80;99.90;;;;;;6264467;23;20191;-82
2022/11/21 11:09:04;;;;;;;25.38;20.33;;;4.90;99.90;;;;;;6263544;23;20250;-82
2022/11/21 11:11:31;;;;;;;23.75;17.80;;;4.70;99.90;;;;;;6262156;22;20202;-81
2022/11/21 11:14:00;;;;;;;27.70;19.50;;;4.50;99.90;;;;;;6261548;23;20186;-80
2022/11/21 11:16:28;;;;;;;25.10;19.52;;;4.50;99.90;;;;;;6262871;23;20179;-82
2022/11/21 11:18:59;;;;;;;26.02;19.10;;;4.70;99.90;;;;;;6263632;23;20190;-82
2022/11/21 11:21:28;;;;;;;23.80;17.13;;;5.00;99.90;;;;;;6263697;22;20199;-81
2022/11/21 11:24:21;;;;;;;23.25;16.75;;;4.90;99.90;;;;;;6271950;22;20199;-82
2022/11/21 11:26:59;;;;;;;22.50;18.58;;;5.20;99.90;;;;;;6265057;23;20163;-82
2022/11/21 11:29:28;;;;;;;23.55;17.75;;;5.30;99.90;;;;;;6262154;23;20194;-83
2022/11/21 11:31:57;;;;;;;23.65;17.30;;;5.50;99.90;;;;;;6262553;22;20203;-83
2022/11/21 11:34:27;;;;;;;28.52;18.30;;;5.30;99.90;;;;;;6262402;23;20176;-81
2022/11/21 11:37:09;;;;;;;23.80;17.83;;;5.30;99.90;;;;;;6263349;23;20209;-82
2022/11/21 11:39:40;;;;;;;27.25;20.40;;;5.20;99.90;;;;;;6269320;23;20190;-81
2022/11/21 11:48:26;;;;;;;23.58;17.27;;;4.80;99.90;;;;;;6261762;23;20162;-80
2022/11/21 11:51:01;;;;;;;25.23;18.35;;;4.70;99.90;;;;;;6263381;22;20195;-83
2022/11/21 11:53:32;;;;;;;23.88;17.60;;;4.50;99.90;;;;;;6275086;22;20169;-83
2022/11/21 11:56:05;;;;;;;27.00;18.83;;;4.60;99.90;;;;;;6274790;22;20169;-82
2022/11/21 11:58:40;;;;;;;29.35;18.35;;;4.60;99.90;;;;;;6274870;22;20164;-82
2022/11/21 12:01:12;;;;;;;38.28;18.80;;;4.40;99.90;;;;;;6273662;22;20190;-82
2022/11/21 12:03:44;;;;;;;28.23;18.80;;;4.30;99.90;;;;;;6273417;22;20167;-83
2022/11/21 12:06:17;;;;;;;30.98;19.35;;;4.30;99.90;;;;;;6271884;22;20163;-81
2022/11/21 12:08:53;;;;;;;27.27;17.10;;;4.30;99.90;;;;;;6270921;23;20186;-81
2022/11/21 12:17:16;;;;;;;32.05;17.80;;;4.20;99.90;;;;;;6266956;22;20538;-81
2022/11/21 12:19:44;;;;;;;29.77;17.70;;;4.20;99.90;;;;;;6265479;23;20180;-82
2022/11/21 12:22:11;;;;;;;28.25;16.50;;;4.10;99.90;;;;;;6265180;22;20206;-80
2022/11/21 12:24:38;;;;;;;28.30;17.50;;;4.10;99.90;;;;;;6265265;23;20203;-82
2022/11/21 12:27:21;;;;;;;23.60;15.85;;;4.10;99.90;;;;;;6264959;23;20183;-83
2022/11/21 12:30:18;;;;;;;25.05;17.50;;;4.10;99.90;;;;;;6263877;23;20211;-82
2022/11/21 12:32:57;;;;;;;27.10;18.27;;;4.10;99.90;;;;;;6231999;23;20187;-81
2022/11/21 12:35:49;;;;;;;31.80;18.00;;;4.00;99.90;;;;;;6261543;23;20182;-82
2022/11/21 12:38:34;;;;;;;26.67;17.85;;;4.10;99.90;;;;;;6259646;23;20168;-83
2022/11/21 12:44:06;;;;;;;29.70;18.15;;;4.00;99.90;;;;;;6252805;23;20198;-82
2022/11/21 12:46:39;;;;;;;24.52;16.77;;;4.00;99.90;;;;;;6254453;23;20238;-80
2022/11/21 12:55:14;;;;;;;32.08;17.15;;;4.00;99.90;;;;;;6256251;23;20158;-81
2022/11/21 12:57:51;;;;;;;24.52;17.38;;;4.00;99.90;;;;;;6256759;23;20190;-81
2022/11/21 13:00:25;;;;;;;29.17;17.52;;;4.10;99.90;;;;;;6254841;23;20211;-82
2022/11/21 13:03:23;;;;;;;27.08;17.98;;;4.00;99.90;;;;;;6255061;22;20199;-80
2022/11/21 13:05:53;;;;;;;27.70;15.63;;;4.00;99.90;;;;;;6256917;23;20183;-80
2022/11/21 13:08:22;;;;;;;26.85;16.90;;;4.00;99.90;;;;;;6257736;23;20551;-82
2022/11/21 13:11:57;;;;;;;23.65;15.05;;;4.00;99.90;;;;;;6255489;22;20238;-82
2022/11/21 13:13:50;;;;;;;23.15;15.35;;;4.10;99.90;;;;;;6255381;23;20182;-80
2022/11/21 13:16:35;;;;;;;22.17;15.55;;;4.10;99.90;;;;;;6258260;23;20213;-81
2022/11/21 13:19:19;;;;;;;18.88;14.00;;;4.00;99.90;;;;;;6256401;23;20163;-81
2022/11/21 13:21:48;;;;;;;19.50;15.30;;;4.10;99.90;;;;;;6256075;22;20209;-83
2022/11/21 13:24:48;;;;;;;20.38;14.70;;;4.20;99.90;;;;;;6256490;23;20576;-82
2022/11/21 13:27:27;;;;;;;18.45;13.00;;;4.30;99.90;;;;;;6256267;23;20179;-80
2022/11/21 13:30:25;;;;;;;15.95;12.63;;;4.30;99.90;;;;;;6256336;23;20197;-82
2022/11/21 13:32:54;;;;;;;17.70;12.95;;;4.20;99.90;;;;;;6255674;22;20234;-81
2022/11/21 13:36:04;;;;;;;18.13;12.05;;;4.30;99.90;;;;;;6255130;23;20225;-81
2022/11/21 13:38:31;;;;;;;16.90;12.85;;;4.20;99.90;;;;;;6256628;23;20160;-81
2022/11/21 13:43:43;;;;;;;16.33;11.88;;;4.40;99.90;;;;;;6258808;23;20166;-81
2022/11/21 13:46:10;;;;;;;15.35;11.18;;;4.30;99.90;;;;;;6261536;23;20213;-81
2022/11/21 13:49:00;;;;;;;20.83;14.10;;;4.30;99.90;;;;;;6258792;23;20178;-80
2022/11/21 13:51:47;;;;;;;17.50;13.73;;;4.30;99.90;;;;;;6258614;22;20249;-82
2022/11/21 13:54:37;;;;;;;22.17;15.07;;;4.30;99.90;;;;;;6259176;23;20175;-82
2022/11/21 13:57:29;;;;;;;21.95;14.73;;;4.30;99.90;;;;;;6257887;23;20242;-80
2022/11/21 14:00:33;;;;;;;22.30;15.85;;;4.20;99.90;;;;;;6252458;23;20253;-80
2022/11/21 14:03:31;;;;;;;24.70;17.70;;;4.10;99.90;;;;;;6238661;23;20234;-81
2022/11/21 14:06:13;;;;;;;22.27;15.57;;;4.10;99.90;;;;;;6260265;23;20190;-81
2022/11/21 14:08:40;;;;;;;21.23;16.95;;;4.00;99.90;;;;;;6258866;23;20542;-80